createdAt,value
2018-08-18T00:02:26.803Z,8.93
2018-08-18T00:07:30.971Z,5.60
2018-08-18T00:12:34.175Z,7.00
2018-08-18T00:17:38.626Z,9.03
2018-08-18T00:22:41.874Z,5.10
2018-08-18T00:27:45.102Z,8.27
2018-08-18T00:32:48.438Z,9.83
2018-08-18T00:37:51.672Z,8.57
2018-08-18T00:42:54.902Z,7.23
2018-08-18T00:47:58.201Z,6.20
2018-08-18T00:53:01.567Z,8.40
2018-08-18T00:58:15.716Z,8.27
2018-08-18T01:03:18.937Z,6.27
2018-08-18T01:08:22.155Z,7.10
2018-08-18T01:13:36.673Z,7.40
2018-08-18T01:18:39.898Z,10.73
2018-08-18T01:23:43.297Z,8.03
2018-08-18T01:28:47.289Z,8.03
2018-08-18T01:33:51.618Z,8.20
2018-08-18T01:38:54.862Z,7.97
2018-08-18T01:44:09.704Z,8.33
2018-08-18T01:49:35.615Z,10.80
2018-08-18T01:54:38.857Z,9.17
2018-08-18T01:59:43.342Z,8.73
2018-08-18T02:04:47.136Z,8.97
2018-08-18T02:09:50.370Z,10.07
2018-08-18T02:14:54.271Z,11.07
2018-08-18T02:19:57.737Z,11.43
2018-08-18T02:25:01.087Z,8.13
2018-08-18T02:30:23.679Z,10.53
2018-08-18T02:35:27.024Z,9.60
2018-08-18T02:40:30.301Z,10.83
2018-08-18T02:45:33.550Z,8.37
2018-08-18T02:50:37.342Z,12.80
2018-08-18T02:55:40.543Z,9.43
2018-08-18T03:00:44.042Z,8.17
2018-08-18T03:05:47.256Z,9.17
2018-08-18T03:10:51.550Z,8.80
2018-08-18T03:15:56.148Z,9.20
2018-08-18T03:20:59.953Z,11.43
2018-08-18T03:26:10.935Z,10.43
2018-08-18T03:31:14.130Z,10.03
2018-08-18T03:36:26.490Z,9.40
2018-08-18T03:41:30.218Z,9.53
2018-08-18T03:46:33.483Z,9.07
2018-08-18T03:51:43.166Z,9.93
2018-08-18T03:56:46.789Z,14.07
2018-08-18T04:02:05.040Z,14.20
2018-08-18T04:07:11.386Z,12.80
2018-08-18T04:12:14.595Z,11.43
2018-08-18T04:17:30.238Z,8.97
2018-08-18T04:22:33.525Z,13.17
2018-08-18T04:27:40.466Z,10.67
2018-08-18T04:33:00.065Z,12.53
2018-08-18T04:38:13.598Z,10.67
2018-08-18T04:43:16.893Z,12.90
2018-08-18T04:48:28.430Z,12.50
2018-08-18T04:53:36.085Z,13.50
2018-08-18T04:58:39.357Z,10.43
2018-08-18T05:03:58.037Z,12.87
2018-08-18T05:09:02.349Z,10.77
2018-08-18T05:14:05.945Z,15.00
2018-08-18T05:19:09.227Z,11.53
2018-08-18T05:24:22.538Z,12.37
2018-08-18T05:29:33.798Z,14.13
2018-08-18T05:34:37.039Z,13.23
2018-08-18T05:39:44.871Z,15.33
2018-08-18T05:44:50.474Z,11.80
2018-08-18T05:49:56.243Z,12.97
2018-08-18T05:55:00.789Z,11.97
2018-08-18T06:00:15.458Z,12.30
2018-08-18T06:05:20.023Z,12.07
2018-08-18T06:10:25.857Z,10.63
2018-08-18T06:15:30.346Z,11.40
2018-08-18T06:20:35.071Z,12.37
2018-08-18T06:25:43.068Z,14.77
2018-08-18T06:30:46.330Z,14.28
2018-08-18T06:35:51.910Z,15.10
2018-08-18T06:40:58.388Z,16.03
2018-08-18T06:46:05.692Z,14.53
2018-08-18T06:51:14.409Z,15.63
2018-08-18T06:56:17.990Z,20.40
2018-08-18T07:01:22.577Z,17.17
2018-08-18T07:06:26.831Z,13.10
2018-08-18T07:11:38.542Z,17.20
2018-08-18T07:16:42.854Z,17.90
2018-08-18T07:21:46.890Z,14.07
2018-08-18T07:26:57.375Z,20.67
2018-08-18T07:32:03.923Z,16.00
2018-08-18T07:37:07.208Z,14.20
2018-08-18T07:42:10.647Z,14.40
2018-08-18T07:47:14.908Z,15.30
2018-08-18T07:52:23.165Z,10.83
2018-08-18T07:57:43.725Z,8.57
2018-08-18T08:02:54.310Z,10.33
2018-08-18T08:08:05.611Z,10.90
2018-08-18T08:13:13.850Z,4.13
2018-08-18T08:18:17.173Z,7.40
2018-08-18T08:23:25.216Z,3.17
2018-08-18T08:28:29.598Z,4.90
2018-08-18T08:33:37.838Z,3.73
2018-08-18T08:38:51.755Z,3.83
2018-08-18T08:43:56.637Z,6.80
2018-08-18T08:49:01.909Z,2.20
2018-08-18T08:54:05.838Z,4.30
2018-08-18T08:59:11.334Z,4.07
2018-08-18T09:04:16.032Z,3.17
2018-08-18T09:09:22.617Z,3.83
2018-08-18T09:14:30.644Z,2.97
2018-08-18T09:19:36.135Z,4.53
2018-08-18T09:24:39.478Z,5.50
2018-08-18T09:29:44.515Z,2.43
2018-08-18T09:34:52.786Z,5.80
2018-08-18T09:40:00.174Z,6.97
2018-08-18T09:45:08.710Z,4.67
2018-08-18T09:50:11.926Z,3.90
2018-08-18T09:55:25.720Z,6.87
2018-08-18T10:00:40.614Z,4.47
2018-08-18T10:05:44.307Z,4.90
2018-08-18T10:10:50.332Z,6.90
2018-08-18T10:16:03.256Z,6.67
2018-08-18T10:21:09.707Z,6.47
2018-08-18T10:26:13.338Z,7.37
2018-08-18T10:31:19.162Z,4.37
2018-08-18T10:36:23.847Z,5.40
2018-08-18T10:41:28.678Z,5.37
2018-08-18T10:46:31.934Z,5.40
2018-08-18T10:51:48.183Z,6.13
2018-08-18T10:56:52.074Z,5.03
2018-08-18T11:02:03.819Z,7.67
2018-08-18T11:07:08.224Z,6.80
2018-08-18T11:12:14.697Z,5.43
2018-08-18T11:17:18.828Z,5.70
2018-08-18T11:23:20.715Z,6.93
2018-08-18T11:28:24.246Z,4.90
2018-08-18T11:33:43.981Z,7.00
2018-08-18T11:38:52.233Z,4.70
2018-08-18T11:43:55.446Z,4.23
2018-08-18T11:48:59.069Z,4.50
2018-08-18T11:54:04.866Z,9.57
2018-08-18T11:59:11.772Z,4.57
2018-08-18T12:04:15.826Z,6.37
2018-08-18T12:09:24.090Z,5.67
2018-08-18T12:14:27.391Z,8.10
2018-08-18T12:19:30.623Z,6.47
2018-08-18T12:24:33.838Z,5.43
2018-08-18T12:29:37.585Z,5.75
2018-08-18T12:34:40.691Z,8.90
2018-08-18T12:39:43.910Z,7.47
2018-08-18T12:44:47.922Z,4.10
2018-08-18T12:49:52.368Z,6.70
2018-08-18T12:54:55.585Z,6.03
2018-08-18T12:59:59.670Z,7.10
2018-08-18T13:05:02.862Z,5.03
2018-08-18T13:10:14.930Z,5.60
2018-08-18T13:15:25.651Z,4.90
2018-08-18T13:20:32.183Z,8.20
2018-08-18T13:25:36.521Z,7.23
2018-08-18T13:30:39.743Z,4.83
2018-08-18T13:35:49.673Z,7.17
2018-08-18T13:40:54.250Z,7.00
2018-08-18T13:46:01.833Z,6.07
2018-08-18T13:51:05.166Z,6.23
2018-08-18T13:56:08.363Z,6.70
2018-08-18T14:01:24.942Z,5.90
2018-08-18T14:06:28.278Z,3.87
2018-08-18T14:11:33.782Z,4.80
2018-08-18T14:16:39.166Z,4.70
2018-08-18T14:21:43.398Z,5.30
2018-08-18T14:26:51.884Z,5.17
2018-08-18T14:31:55.531Z,6.07
2018-08-18T14:37:07.312Z,5.87
2018-08-18T14:42:10.740Z,4.40
2018-08-18T14:47:13.955Z,3.43
2018-08-18T14:52:17.388Z,6.43
2018-08-18T14:57:20.626Z,5.23
2018-08-18T15:02:23.906Z,8.87
2018-08-18T15:07:29.982Z,3.80
2018-08-18T15:12:34.075Z,4.20
2018-08-18T15:17:37.603Z,3.60
2018-08-18T15:22:43.104Z,2.50
2018-08-18T15:27:46.279Z,4.87
2018-08-18T15:32:50.547Z,4.40
2018-08-18T15:37:53.825Z,3.97
2018-08-18T15:42:58.274Z,5.27
2018-08-18T15:48:03.365Z,2.73
2018-08-18T15:53:06.708Z,6.77
2018-08-18T15:58:09.962Z,3.33
2018-08-18T16:03:15.200Z,2.90
2018-08-18T16:08:19.398Z,4.53
2018-08-18T16:13:22.691Z,2.30
2018-08-18T16:18:25.965Z,2.63
2018-08-18T16:23:30.546Z,3.83
2018-08-18T16:28:36.935Z,4.57
2018-08-18T16:33:40.470Z,4.13
2018-08-18T16:38:43.666Z,5.60
2018-08-18T16:43:46.915Z,2.80
2018-08-18T16:48:50.837Z,3.87
2018-08-18T16:53:54.166Z,4.97
2018-08-18T16:58:58.894Z,3.83
2018-08-18T17:04:03.214Z,3.40
2018-08-18T17:09:09.818Z,3.80
2018-08-18T17:14:20.427Z,2.73
2018-08-18T17:19:24.171Z,7.80
2018-08-18T17:24:31.718Z,3.47
2018-08-18T17:29:38.348Z,8.63
2018-08-18T17:34:41.598Z,3.27
2018-08-18T17:39:44.861Z,5.80
2018-08-18T17:44:49.834Z,4.23
2018-08-18T17:49:54.632Z,6.03
2018-08-18T17:55:10.850Z,7.40
2018-08-18T18:00:19.019Z,4.47
2018-08-18T18:05:25.485Z,7.03
2018-08-18T18:10:32.807Z,2.77
2018-08-18T18:15:37.329Z,3.20
2018-08-18T18:20:47.950Z,4.60
2018-08-18T18:25:52.273Z,7.90
2018-08-18T18:30:55.489Z,6.13
2018-08-18T18:36:04.631Z,5.53
2018-08-18T18:41:07.913Z,7.87
2018-08-18T18:46:13.321Z,14.40
2018-08-18T18:51:16.459Z,14.47
2018-08-18T18:56:19.834Z,10.03
2018-08-18T19:01:23.917Z,17.33
2018-08-18T19:06:28.570Z,12.33
2018-08-18T19:11:31.910Z,11.17
2018-08-18T19:16:35.186Z,9.27
2018-08-18T19:21:38.430Z,7.90
2018-08-18T19:26:46.777Z,8.20
2018-08-18T19:31:51.578Z,5.77
2018-08-18T19:37:06.982Z,5.03
2018-08-18T19:42:16.839Z,7.67
2018-08-18T19:47:27.463Z,7.13
2018-08-18T19:52:30.724Z,6.53
2018-08-18T19:57:37.236Z,6.30
2018-08-18T20:02:59.081Z,6.43
2018-08-18T20:08:02.322Z,5.17
2018-08-18T20:13:20.958Z,7.33
2018-08-18T20:18:29.938Z,7.90
2018-08-18T20:23:33.183Z,6.97
2018-08-18T20:28:36.466Z,6.70
2018-08-18T20:33:40.078Z,6.93
2018-08-18T20:38:56.798Z,8.57
2018-08-18T20:44:00.059Z,4.80
2018-08-18T20:49:03.436Z,7.93
2018-08-18T20:54:06.688Z,9.60
2018-08-18T20:59:09.906Z,6.83
2018-08-18T21:04:13.122Z,7.27
2018-08-18T21:09:27.896Z,11.93
2018-08-18T21:14:31.225Z,8.13
2018-08-18T21:19:36.040Z,6.00
2018-08-18T21:24:39.646Z,8.63
2018-08-18T21:29:42.850Z,9.10
2018-08-18T21:34:50.411Z,9.00
2018-08-18T21:39:53.711Z,8.43
2018-08-18T21:44:56.978Z,11.03
2018-08-18T21:50:00.199Z,6.67
2018-08-18T21:55:03.725Z,6.67
2018-08-18T22:00:06.934Z,8.73
2018-08-18T22:05:12.666Z,9.20
2018-08-18T22:10:15.924Z,9.57
2018-08-18T22:15:21.125Z,10.77
2018-08-18T22:20:24.324Z,10.73
2018-08-18T22:25:27.574Z,6.40
2018-08-18T22:30:31.028Z,10.50
2018-08-18T22:35:34.230Z,6.97
2018-08-18T22:40:37.517Z,13.93
2018-08-18T22:45:40.707Z,9.13
2018-08-18T22:50:43.999Z,7.03
2018-08-18T22:55:47.234Z,8.90
2018-08-18T23:00:53.798Z,9.07
2018-08-18T23:05:57.869Z,10.13
2018-08-18T23:11:01.123Z,9.13
2018-08-18T23:16:04.434Z,9.23
2018-08-18T23:21:10.140Z,10.03
2018-08-18T23:26:13.658Z,7.17
2018-08-18T23:31:16.884Z,7.90
2018-08-18T23:36:20.074Z,9.80
2018-08-18T23:41:23.378Z,11.77
2018-08-18T23:46:26.566Z,9.57
2018-08-18T23:51:36.024Z,11.00
2018-08-18T23:56:39.224Z,9.80
